sensor_id;sensor_type;location;lat;lon;timestamp;temperature;humidity
65637;DHT22;52327;42.622;23.316;2023-01-16T00:00:55;0.61;89.09
65637;DHT22;52327;42.622;23.316;2023-01-16T00:03:20;0.60;89.03
65637;DHT22;52327;42.622;23.316;2023-01-16T00:05:46;0.50;88.90
65637;DHT22;52327;42.622;23.316;2023-01-16T00:08:11;0.57;88.50
65637;DHT22;52327;42.622;23.316;2023-01-16T00:10:37;0.55;88.63
65637;DHT22;52327;42.622;23.316;2023-01-16T00:13:03;0.64;88.38
65637;DHT22;52327;42.622;23.316;2023-01-16T00:15:28;0.68;88.65
65637;DHT22;52327;42.622;23.316;2023-01-16T00:17:54;0.76;88.90
65637;DHT22;52327;42.622;23.316;2023-01-16T00:20:20;0.88;88.84
65637;DHT22;52327;42.622;23.316;2023-01-16T00:22:46;0.91;88.12
65637;DHT22;52327;42.622;23.316;2023-01-16T00:25:11;0.88;87.87
65637;DHT22;52327;42.622;23.316;2023-01-16T00:27:37;0.96;88.05
65637;DHT22;52327;42.622;23.316;2023-01-16T00:30:03;1.06;88.07
65637;DHT22;52327;42.622;23.316;2023-01-16T00:32:29;1.05;87.92
65637;DHT22;52327;42.622;23.316;2023-01-16T00:34:54;1.02;87.70
65637;DHT22;52327;42.622;23.316;2023-01-16T00:37:20;1.05;87.22
65637;DHT22;52327;42.622;23.316;2023-01-16T00:39:45;1.09;86.54
65637;DHT22;52327;42.622;23.316;2023-01-16T00:42:11;1.13;86.19
65637;DHT22;52327;42.622;23.316;2023-01-16T00:44:36;1.03;86.69
65637;DHT22;52327;42.622;23.316;2023-01-16T00:47:02;0.88;87.79
65637;DHT22;52327;42.622;23.316;2023-01-16T00:49:28;0.74;88.79
65637;DHT22;52327;42.622;23.316;2023-01-16T00:51:53;0.68;89.07
65637;DHT22;52327;42.622;23.316;2023-01-16T00:54:19;0.74;89.17
65637;DHT22;52327;42.622;23.316;2023-01-16T00:56:44;0.79;88.72
65637;DHT22;52327;42.622;23.316;2023-01-16T00:59:10;0.91;88.35
65637;DHT22;52327;42.622;23.316;2023-01-16T01:01:36;0.92;88.64
65637;DHT22;52327;42.622;23.316;2023-01-16T01:04:02;1.02;88.78
65637;DHT22;52327;42.622;23.316;2023-01-16T01:06:28;1.19;88.41
65637;DHT22;52327;42.622;23.316;2023-01-16T01:08:53;1.17;87.42
65637;DHT22;52327;42.622;23.316;2023-01-16T01:11:19;1.15;87.03
65637;DHT22;52327;42.622;23.316;2023-01-16T01:13:44;1.13;86.95
65637;DHT22;52327;42.622;23.316;2023-01-16T01:16:11;1.30;87.35
65637;DHT22;52327;42.622;23.316;2023-01-16T01:18:37;1.43;87.12
65637;DHT22;52327;42.622;23.316;2023-01-16T01:21:02;1.46;87.39
65637;DHT22;52327;42.622;23.316;2023-01-16T01:23:28;1.58;86.48
65637;DHT22;52327;42.622;23.316;2023-01-16T01:25:54;1.64;87.10
65637;DHT22;52327;42.622;23.316;2023-01-16T01:28:19;1.80;84.60
65637;DHT22;52327;42.622;23.316;2023-01-16T01:30:45;1.77;84.25
65637;DHT22;52327;42.622;23.316;2023-01-16T01:33:11;1.58;85.68
65637;DHT22;52327;42.622;23.316;2023-01-16T01:35:37;1.53;86.07
65637;DHT22;52327;42.622;23.316;2023-01-16T01:38:03;1.64;84.43
65637;DHT22;52327;42.622;23.316;2023-01-16T01:40:28;1.58;85.39
65637;DHT22;52327;42.622;23.316;2023-01-16T01:42:54;1.47;86.65
65637;DHT22;52327;42.622;23.316;2023-01-16T01:45:26;1.47;87.63
65637;DHT22;52327;42.622;23.316;2023-01-16T01:53:13;1.49;86.44
65637;DHT22;52327;42.622;23.316;2023-01-16T01:55:40;1.46;85.04
65637;DHT22;52327;42.622;23.316;2023-01-16T01:58:07;1.36;86.42
65637;DHT22;52327;42.622;23.316;2023-01-16T02:00:33;1.25;87.37
65637;DHT22;52327;42.622;23.316;2023-01-16T02:03:10;1.08;87.55
65637;DHT22;52327;42.622;23.316;2023-01-16T02:05:42;1.09;88.29
65637;DHT22;52327;42.622;23.316;2023-01-16T02:08:13;0.96;87.64
65637;DHT22;52327;42.622;23.316;2023-01-16T02:10:51;0.84;88.34
65637;DHT22;52327;42.622;23.316;2023-01-16T02:13:18;0.82;88.85
65637;DHT22;52327;42.622;23.316;2023-01-16T02:15:44;0.93;88.96
65637;DHT22;52327;42.622;23.316;2023-01-16T02:18:29;0.91;88.87
65637;DHT22;52327;42.622;23.316;2023-01-16T02:27:00;0.89;88.52
65637;DHT22;52327;42.622;23.316;2023-01-16T02:29:33;0.95;88.17
65637;DHT22;52327;42.622;23.316;2023-01-16T02:32:13;0.99;87.65
65637;DHT22;52327;42.622;23.316;2023-01-16T02:37:34;1.16;87.84
65637;DHT22;52327;42.622;23.316;2023-01-16T02:40:31;1.19;87.57
65637;DHT22;52327;42.622;23.316;2023-01-16T02:45:46;1.30;87.98
65637;DHT22;52327;42.622;23.316;2023-01-16T02:51:18;1.26;87.16
65637;DHT22;52327;42.622;23.316;2023-01-16T02:54:16;1.30;87.03
65637;DHT22;52327;42.622;23.316;2023-01-16T02:56:47;1.22;87.15
65637;DHT22;52327;42.622;23.316;2023-01-16T02:59:15;1.27;87.96
65637;DHT22;52327;42.622;23.316;2023-01-16T03:01:44;1.35;87.85
65637;DHT22;52327;42.622;23.316;2023-01-16T03:04:44;1.36;87.65
65637;DHT22;52327;42.622;23.316;2023-01-16T03:23:40;1.15;87.10
65637;DHT22;52327;42.622;23.316;2023-01-16T03:26:16;1.08;87.91
65637;DHT22;52327;42.622;23.316;2023-01-16T03:34:54;0.98;88.40
65637;DHT22;52327;42.622;23.316;2023-01-16T03:37:51;0.88;88.53
65637;DHT22;52327;42.622;23.316;2023-01-16T03:40:26;0.84;88.77
65637;DHT22;52327;42.622;23.316;2023-01-16T03:43:27;0.76;88.65
65637;DHT22;52327;42.622;23.316;2023-01-16T03:46:01;0.61;89.30
65637;DHT22;52327;42.622;23.316;2023-01-16T03:48:49;0.62;89.52
65637;DHT22;52327;42.622;23.316;2023-01-16T03:51:30;0.74;89.48
65637;DHT22;52327;42.622;23.316;2023-01-16T03:54:16;0.71;89.29
65637;DHT22;52327;42.622;23.316;2023-01-16T03:57:11;0.65;89.23
65637;DHT22;52327;42.622;23.316;2023-01-16T03:59:41;0.60;89.13
65637;DHT22;52327;42.622;23.316;2023-01-16T04:04:46;0.64;88.50
65637;DHT22;52327;42.622;23.316;2023-01-16T04:07:38;0.64;88.43
65637;DHT22;52327;42.622;23.316;2023-01-16T04:10:10;0.55;88.75
65637;DHT22;52327;42.622;23.316;2023-01-16T04:12:43;0.55;89.17
65637;DHT22;52327;42.622;23.316;2023-01-16T04:15:10;0.45;89.16
65637;DHT22;52327;42.622;23.316;2023-01-16T04:17:37;0.38;89.57
65637;DHT22;52327;42.622;23.316;2023-01-16T04:20:04;0.50;89.80
65637;DHT22;52327;42.622;23.316;2023-01-16T04:22:31;0.57;89.94
65637;DHT22;52327;42.622;23.316;2023-01-16T04:24:58;0.65;89.72
65637;DHT22;52327;42.622;23.316;2023-01-16T04:27:25;0.65;89.64
65637;DHT22;52327;42.622;23.316;2023-01-16T04:29:51;0.71;89.16
65637;DHT22;52327;42.622;23.316;2023-01-16T04:32:17;0.68;89.06
65637;DHT22;52327;42.622;23.316;2023-01-16T04:34:42;0.64;88.81
65637;DHT22;52327;42.622;23.316;2023-01-16T04:37:11;0.55;88.69
65637;DHT22;52327;42.622;23.316;2023-01-16T04:39:37;0.57;88.88
65637;DHT22;52327;42.622;23.316;2023-01-16T04:42:02;0.61;88.93
65637;DHT22;52327;42.622;23.316;2023-01-16T04:44:28;0.58;89.16
65637;DHT22;52327;42.622;23.316;2023-01-16T04:46:53;0.62;88.25
65637;DHT22;52327;42.622;23.316;2023-01-16T04:49:19;0.57;88.93
65637;DHT22;52327;42.622;23.316;2023-01-16T04:51:45;0.62;88.86
65637;DHT22;52327;42.622;23.316;2023-01-16T04:54:14;0.57;89.11
65637;DHT22;52327;42.622;23.316;2023-01-16T04:56:40;0.68;89.43
65637;DHT22;52327;42.622;23.316;2023-01-16T04:59:07;0.72;88.42
65637;DHT22;52327;42.622;23.316;2023-01-16T05:01:32;0.69;87.57
65637;DHT22;52327;42.622;23.316;2023-01-16T05:04:04;0.72;86.62
65637;DHT22;52327;42.622;23.316;2023-01-16T05:06:30;0.60;88.00
65637;DHT22;52327;42.622;23.316;2023-01-16T05:08:55;0.57;88.46
65637;DHT22;52327;42.622;23.316;2023-01-16T05:11:21;0.55;87.45
65637;DHT22;52327;42.622;23.316;2023-01-16T05:13:46;0.50;87.86
65637;DHT22;52327;42.622;23.316;2023-01-16T05:16:11;0.44;88.04
65637;DHT22;52327;42.622;23.316;2023-01-16T05:18:37;0.33;88.58
65637;DHT22;52327;42.622;23.316;2023-01-16T05:21:02;0.30;88.80
65637;DHT22;52327;42.622;23.316;2023-01-16T05:23:29;0.31;88.99
65637;DHT22;52327;42.622;23.316;2023-01-16T05:25:54;0.37;88.59
65637;DHT22;52327;42.622;23.316;2023-01-16T05:28:20;0.36;88.63
65637;DHT22;52327;42.622;23.316;2023-01-16T05:30:47;0.44;88.79
65637;DHT22;52327;42.622;23.316;2023-01-16T05:33:13;0.37;88.93
65637;DHT22;52327;42.622;23.316;2023-01-16T05:35:38;0.37;89.45
65637;DHT22;52327;42.622;23.316;2023-01-16T05:38:04;0.44;89.01
65637;DHT22;52327;42.622;23.316;2023-01-16T05:40:29;0.48;88.70
65637;DHT22;52327;42.622;23.316;2023-01-16T05:42:55;0.47;88.90
65637;DHT22;52327;42.622;23.316;2023-01-16T05:45:20;0.47;88.82
65637;DHT22;52327;42.622;23.316;2023-01-16T05:47:46;0.48;89.19
65637;DHT22;52327;42.622;23.316;2023-01-16T05:50:11;0.45;89.21
65637;DHT22;52327;42.622;23.316;2023-01-16T05:52:36;0.61;87.60
65637;DHT22;52327;42.622;23.316;2023-01-16T05:55:02;0.62;88.17
65637;DHT22;52327;42.622;23.316;2023-01-16T05:57:27;0.60;88.53
65637;DHT22;52327;42.622;23.316;2023-01-16T05:59:54;0.60;88.31
65637;DHT22;52327;42.622;23.316;2023-01-16T06:02:20;0.44;88.10
65637;DHT22;52327;42.622;23.316;2023-01-16T06:04:45;0.37;88.63
65637;DHT22;52327;42.622;23.316;2023-01-16T06:07:11;0.37;88.74
65637;DHT22;52327;42.622;23.316;2023-01-16T06:09:37;0.34;88.74
65637;DHT22;52327;42.622;23.316;2023-01-16T06:12:03;0.28;89.11
65637;DHT22;52327;42.622;23.316;2023-01-16T06:14:28;0.28;89.30
65637;DHT22;52327;42.622;23.316;2023-01-16T06:16:54;0.47;88.69
65637;DHT22;52327;42.622;23.316;2023-01-16T06:19:19;0.55;88.83
65637;DHT22;52327;42.622;23.316;2023-01-16T06:21:44;0.68;88.85
65637;DHT22;52327;42.622;23.316;2023-01-16T06:24:11;0.65;88.43
65637;DHT22;52327;42.622;23.316;2023-01-16T06:26:36;0.60;88.48
65637;DHT22;52327;42.622;23.316;2023-01-16T06:29:02;0.60;88.80
65637;DHT22;52327;42.622;23.316;2023-01-16T06:31:27;0.74;88.60
65637;DHT22;52327;42.622;23.316;2023-01-16T06:33:53;0.72;88.70
65637;DHT22;52327;42.622;23.316;2023-01-16T06:36:19;0.84;88.36
65637;DHT22;52327;42.622;23.316;2023-01-16T06:38:44;0.88;88.56
65637;DHT22;52327;42.622;23.316;2023-01-16T06:41:09;0.93;88.68
65637;DHT22;52327;42.622;23.316;2023-01-16T06:43:36;0.91;88.66
65637;DHT22;52327;42.622;23.316;2023-01-16T06:46:01;0.95;88.52
65637;DHT22;52327;42.622;23.316;2023-01-16T06:48:26;0.91;88.48
65637;DHT22;52327;42.622;23.316;2023-01-16T06:50:52;1.03;88.72
65637;DHT22;52327;42.622;23.316;2023-01-16T06:53:19;1.26;87.92
65637;DHT22;52327;42.622;23.316;2023-01-16T06:55:44;1.37;88.03
65637;DHT22;52327;42.622;23.316;2023-01-16T06:58:09;1.44;88.13
65637;DHT22;52327;42.622;23.316;2023-01-16T07:00:35;1.61;88.07
65637;DHT22;52327;42.622;23.316;2023-01-16T07:03:02;1.80;87.82
65637;DHT22;52327;42.622;23.316;2023-01-16T07:05:29;1.97;87.52
65637;DHT22;52327;42.622;23.316;2023-01-16T07:07:55;2.08;86.27
65637;DHT22;52327;42.622;23.316;2023-01-16T07:10:21;2.31;85.82
65637;DHT22;52327;42.622;23.316;2023-01-16T07:12:51;2.40;84.84
65637;DHT22;52327;42.622;23.316;2023-01-16T07:15:18;2.48;84.41
65637;DHT22;52327;42.622;23.316;2023-01-16T07:18:02;2.46;84.52
65637;DHT22;52327;42.622;23.316;2023-01-16T07:20:56;2.40;84.87
65637;DHT22;52327;42.622;23.316;2023-01-16T07:23:43;2.56;85.42
65637;DHT22;52327;42.622;23.316;2023-01-16T07:26:10;2.72;85.43
65637;DHT22;52327;42.622;23.316;2023-01-16T07:28:37;2.70;84.37
65637;DHT22;52327;42.622;23.316;2023-01-16T07:31:04;2.75;84.69
65637;DHT22;52327;42.622;23.316;2023-01-16T07:33:30;2.73;84.61
65637;DHT22;52327;42.622;23.316;2023-01-16T07:35:56;2.76;84.69
65637;DHT22;52327;42.622;23.316;2023-01-16T07:38:21;2.69;85.63
65637;DHT22;52327;42.622;23.316;2023-01-16T07:40:47;2.56;85.46
65637;DHT22;52327;42.622;23.316;2023-01-16T07:43:12;2.54;86.19
65637;DHT22;52327;42.622;23.316;2023-01-16T07:45:38;2.48;86.54
65637;DHT22;52327;42.622;23.316;2023-01-16T07:48:04;2.60;86.54
65637;DHT22;52327;42.622;23.316;2023-01-16T07:50:29;2.57;86.74
65637;DHT22;52327;42.622;23.316;2023-01-16T07:52:55;2.72;87.04
65637;DHT22;52327;42.622;23.316;2023-01-16T07:55:20;2.84;86.92
65637;DHT22;52327;42.622;23.316;2023-01-16T07:57:46;2.66;84.90
65637;DHT22;52327;42.622;23.316;2023-01-16T08:00:12;2.91;85.80
65637;DHT22;52327;42.622;23.316;2023-01-16T08:02:39;3.14;86.55
65637;DHT22;52327;42.622;23.316;2023-01-16T08:05:08;3.46;85.71
65637;DHT22;52327;42.622;23.316;2023-01-16T08:07:34;3.75;83.51
65637;DHT22;52327;42.622;23.316;2023-01-16T08:09:59;3.90;83.99
65637;DHT22;52327;42.622;23.316;2023-01-16T08:12:28;4.03;83.94
65637;DHT22;52327;42.622;23.316;2023-01-16T08:14:53;4.06;83.64
65637;DHT22;52327;42.622;23.316;2023-01-16T08:17:18;4.09;82.70
65637;DHT22;52327;42.622;23.316;2023-01-16T08:19:44;3.90;82.58
65637;DHT22;52327;42.622;23.316;2023-01-16T08:22:09;3.68;82.58
65637;DHT22;52327;42.622;23.316;2023-01-16T08:24:35;3.25;83.21
65637;DHT22;52327;42.622;23.316;2023-01-16T08:27:00;3.25;84.08
65637;DHT22;52327;42.622;23.316;2023-01-16T08:29:26;3.28;83.84
65637;DHT22;52327;42.622;23.316;2023-01-16T08:31:51;3.41;84.65
65637;DHT22;52327;42.622;23.316;2023-01-16T08:34:17;3.72;84.91
65637;DHT22;52327;42.622;23.316;2023-01-16T08:36:43;4.05;84.33
65637;DHT22;52327;42.622;23.316;2023-01-16T08:39:12;4.18;83.69
65637;DHT22;52327;42.622;23.316;2023-01-16T08:41:38;4.46;82.87
65637;DHT22;52327;42.622;23.316;2023-01-16T08:44:21;4.47;80.90
65637;DHT22;52327;42.622;23.316;2023-01-16T08:47:22;4.58;81.60
65637;DHT22;52327;42.622;23.316;2023-01-16T08:50:12;4.74;81.36
65637;DHT22;52327;42.622;23.316;2023-01-16T08:52:56;4.44;81.25
65637;DHT22;52327;42.622;23.316;2023-01-16T08:55:21;4.54;82.01
65637;DHT22;52327;42.622;23.316;2023-01-16T08:57:46;4.62;82.04
65637;DHT22;52327;42.622;23.316;2023-01-16T09:00:12;4.65;79.58
65637;DHT22;52327;42.622;23.316;2023-01-16T09:02:38;4.47;79.66
65637;DHT22;52327;42.622;23.316;2023-01-16T09:05:04;4.21;80.50
65637;DHT22;52327;42.622;23.316;2023-01-16T09:07:30;4.37;80.58
65637;DHT22;52327;42.622;23.316;2023-01-16T09:09:55;4.61;81.20
65637;DHT22;52327;42.622;23.316;2023-01-16T09:12:20;4.79;81.08
65637;DHT22;52327;42.622;23.316;2023-01-16T09:15:05;4.68;77.80
65637;DHT22;52327;42.622;23.316;2023-01-16T09:17:31;4.58;79.62
65637;DHT22;52327;42.622;23.316;2023-01-16T09:19:56;4.72;79.67
65637;DHT22;52327;42.622;23.316;2023-01-16T09:22:22;4.82;80.40
65637;DHT22;52327;42.622;23.316;2023-01-16T09:24:48;4.82;80.51
65637;DHT22;52327;42.622;23.316;2023-01-16T09:27:13;4.88;80.40
65637;DHT22;52327;42.622;23.316;2023-01-16T09:29:40;4.92;80.79
65637;DHT22;52327;42.622;23.316;2023-01-16T09:32:06;5.05;80.52
65637;DHT22;52327;42.622;23.316;2023-01-16T09:34:38;5.06;79.32
65637;DHT22;52327;42.622;23.316;2023-01-16T09:37:05;5.29;75.45
65637;DHT22;52327;42.622;23.316;2023-01-16T09:39:31;5.23;74.98
65637;DHT22;52327;42.622;23.316;2023-01-16T09:44:45;4.98;78.21
65637;DHT22;52327;42.622;23.316;2023-01-16T09:47:12;4.61;78.36
65637;DHT22;52327;42.622;23.316;2023-01-16T09:49:50;4.50;79.80
65637;DHT22;52327;42.622;23.316;2023-01-16T09:52:20;4.64;80.45
65637;DHT22;52327;42.622;23.316;2023-01-16T09:55:21;4.88;77.28
65637;DHT22;52327;42.622;23.316;2023-01-16T09:58:13;4.89;78.23
65637;DHT22;52327;42.622;23.316;2023-01-16T10:00:59;4.79;76.78
65637;DHT22;52327;42.622;23.316;2023-01-16T10:03:25;4.92;77.36
65637;DHT22;52327;42.622;23.316;2023-01-16T10:11:55;4.93;78.63
65637;DHT22;52327;42.622;23.316;2023-01-16T10:17:20;5.13;77.48
65637;DHT22;52327;42.622;23.316;2023-01-16T10:20:05;4.92;75.79
65637;DHT22;52327;42.622;23.316;2023-01-16T10:22:36;4.96;78.77
65637;DHT22;52327;42.622;23.316;2023-01-16T10:32:55;5.51;75.54
65637;DHT22;52327;42.622;23.316;2023-01-16T10:35:40;5.46;74.76
65637;DHT22;52327;42.622;23.316;2023-01-16T10:38:26;5.47;75.54
65637;DHT22;52327;42.622;23.316;2023-01-16T10:41:02;5.46;74.69
65637;DHT22;52327;42.622;23.316;2023-01-16T10:43:48;5.08;74.88
65637;DHT22;52327;42.622;23.316;2023-01-16T10:46:34;5.19;76.09
65637;DHT22;52327;42.622;23.316;2023-01-16T10:49:18;5.05;74.06
65637;DHT22;52327;42.622;23.316;2023-01-16T10:52:01;5.33;75.33
65637;DHT22;52327;42.622;23.316;2023-01-16T10:54:28;5.70;75.06
65637;DHT22;52327;42.622;23.316;2023-01-16T10:56:54;5.91;73.48
65637;DHT22;52327;42.622;23.316;2023-01-16T10:59:23;6.04;71.84
65637;DHT22;52327;42.622;23.316;2023-01-16T11:01:50;6.33;69.35
65637;DHT22;52327;42.622;23.316;2023-01-16T11:04:18;6.35;70.50
65637;DHT22;52327;42.622;23.316;2023-01-16T11:06:45;6.29;70.11
65637;DHT22;52327;42.622;23.316;2023-01-16T11:11:39;6.45;70.06
65637;DHT22;52327;42.622;23.316;2023-01-16T11:14:32;6.46;73.12
65637;DHT22;52327;42.622;23.316;2023-01-16T11:20:08;6.43;68.56
65637;DHT22;52327;42.622;23.316;2023-01-16T11:22:38;6.45;70.72
65637;DHT22;52327;42.622;23.316;2023-01-16T11:25:05;6.55;70.64
65637;DHT22;52327;42.622;23.316;2023-01-16T11:27:34;6.39;71.02
65637;DHT22;52327;42.622;23.316;2023-01-16T11:30:04;6.07;68.28
65637;DHT22;52327;42.622;23.316;2023-01-16T11:32:35;6.00;70.64
65637;DHT22;52327;42.622;23.316;2023-01-16T11:35:11;6.20;71.71
65637;DHT22;52327;42.622;23.316;2023-01-16T11:37:38;6.33;69.37
65637;DHT22;52327;42.622;23.316;2023-01-16T11:40:05;6.31;67.42
65637;DHT22;52327;42.622;23.316;2023-01-16T11:42:33;6.41;69.77
65637;DHT22;52327;42.622;23.316;2023-01-16T11:45:19;6.36;68.37
65637;DHT22;52327;42.622;23.316;2023-01-16T11:48:06;6.29;67.29
65637;DHT22;52327;42.622;23.316;2023-01-16T11:51:12;6.52;66.65
65637;DHT22;52327;42.622;23.316;2023-01-16T11:53:37;6.68;68.51
65637;DHT22;52327;42.622;23.316;2023-01-16T12:05:08;7.52;65.42
65637;DHT22;52327;42.622;23.316;2023-01-16T12:25:05;7.81;65.74
65637;DHT22;52327;42.622;23.316;2023-01-16T12:27:50;7.99;65.70
65637;DHT22;52327;42.622;23.316;2023-01-16T12:36:23;8.17;65.53
65637;DHT22;52327;42.622;23.316;2023-01-16T12:38:39;8.27;63.66
65637;DHT22;52327;42.622;23.316;2023-01-16T12:41:17;8.12;61.22
65637;DHT22;52327;42.622;23.316;2023-01-16T12:46:43;7.97;63.46
65637;DHT22;52327;42.622;23.316;2023-01-16T12:59:33;6.93;70.72
65637;DHT22;52327;42.622;23.316;2023-01-16T13:05:05;7.07;70.48
65637;DHT22;52327;42.622;23.316;2023-01-16T13:07:41;7.10;70.79
65637;DHT22;52327;42.622;23.316;2023-01-16T13:12:54;6.75;70.98
65637;DHT22;52327;42.622;23.316;2023-01-16T13:15:41;6.76;69.62
65637;DHT22;52327;42.622;23.316;2023-01-16T13:18:21;6.76;72.44
65637;DHT22;52327;42.622;23.316;2023-01-16T13:20:52;6.92;68.73
65637;DHT22;52327;42.622;23.316;2023-01-16T13:23:41;6.90;71.00
65637;DHT22;52327;42.622;23.316;2023-01-16T13:26:10;6.89;72.14
65637;DHT22;52327;42.622;23.316;2023-01-16T13:28:43;6.92;72.11
65637;DHT22;52327;42.622;23.316;2023-01-16T13:31:39;6.89;71.70
65637;DHT22;52327;42.622;23.316;2023-01-16T13:42:31;5.66;73.94
65637;DHT22;52327;42.622;23.316;2023-01-16T13:45:02;5.60;73.88
65637;DHT22;52327;42.622;23.316;2023-01-16T13:47:49;5.73;75.62
65637;DHT22;52327;42.622;23.316;2023-01-16T13:50:20;5.61;74.45
65637;DHT22;52327;42.622;23.316;2023-01-16T13:52:48;5.61;74.04
65637;DHT22;52327;42.622;23.316;2023-01-16T13:55:26;5.49;74.13
65637;DHT22;52327;42.622;23.316;2023-01-16T13:57:55;5.53;75.26
65637;DHT22;52327;42.622;23.316;2023-01-16T14:00:22;5.60;74.85
65637;DHT22;52327;42.622;23.316;2023-01-16T14:08:14;5.20;75.98
65637;DHT22;52327;42.622;23.316;2023-01-16T14:13:36;5.35;75.47
65637;DHT22;52327;42.622;23.316;2023-01-16T14:21:27;4.95;77.23
65637;DHT22;52327;42.622;23.316;2023-01-16T14:23:58;4.40;78.13
65637;DHT22;52327;42.622;23.316;2023-01-16T14:26:34;4.37;78.93
65637;DHT22;52327;42.622;23.316;2023-01-16T14:29:05;4.69;76.50
65637;DHT22;52327;42.622;23.316;2023-01-16T14:31:49;4.81;79.43
65637;DHT22;52327;42.622;23.316;2023-01-16T14:34:20;4.95;78.72
65637;DHT22;52327;42.622;23.316;2023-01-16T14:36:50;4.64;77.71
65637;DHT22;52327;42.622;23.316;2023-01-16T14:39:34;4.34;78.27
65637;DHT22;52327;42.622;23.316;2023-01-16T14:42:04;4.41;78.96
65637;DHT22;52327;42.622;23.316;2023-01-16T14:48:13;4.46;78.17
65637;DHT22;52327;42.622;23.316;2023-01-16T14:51:14;4.47;78.52
65637;DHT22;52327;42.622;23.316;2023-01-16T14:54:23;4.56;78.03
65637;DHT22;52327;42.622;23.316;2023-01-16T14:57:13;4.46;77.98
65637;DHT22;52327;42.622;23.316;2023-01-16T14:59:45;4.47;77.38
65637;DHT22;52327;42.622;23.316;2023-01-16T15:02:23;4.48;78.09
65637;DHT22;52327;42.622;23.316;2023-01-16T15:05:08;4.32;79.36
65637;DHT22;52327;42.622;23.316;2023-01-16T15:07:45;4.30;80.93
65637;DHT22;52327;42.622;23.316;2023-01-16T15:12:42;4.53;79.28
65637;DHT22;52327;42.622;23.316;2023-01-16T15:15:19;4.53;79.43
65637;DHT22;52327;42.622;23.316;2023-01-16T15:17:46;4.44;79.81
65637;DHT22;52327;42.622;23.316;2023-01-16T15:20:37;4.44;79.01
65637;DHT22;52327;42.622;23.316;2023-01-16T15:23:28;4.43;78.90
65637;DHT22;52327;42.622;23.316;2023-01-16T15:31:35;3.82;81.80
65637;DHT22;52327;42.622;23.316;2023-01-16T15:34:20;3.86;80.71
65637;DHT22;52327;42.622;23.316;2023-01-16T15:36:49;3.79;80.63
65637;DHT22;52327;42.622;23.316;2023-01-16T15:39:28;3.89;81.24
65637;DHT22;52327;42.622;23.316;2023-01-16T15:41:56;3.69;81.64
65637;DHT22;52327;42.622;23.316;2023-01-16T15:44:45;3.75;81.32
65637;DHT22;52327;42.622;23.316;2023-01-16T15:53:19;3.51;81.84
65637;DHT22;52327;42.622;23.316;2023-01-16T15:55:48;3.54;82.42
65637;DHT22;52327;42.622;23.316;2023-01-16T15:58:18;3.55;82.13
65637;DHT22;52327;42.622;23.316;2023-01-16T16:00:44;3.54;82.50
65637;DHT22;52327;42.622;23.316;2023-01-16T16:03:15;3.62;81.59
65637;DHT22;52327;42.622;23.316;2023-01-16T16:05:48;3.61;81.59
65637;DHT22;52327;42.622;23.316;2023-01-16T16:08:17;3.68;80.35
65637;DHT22;52327;42.622;23.316;2023-01-16T16:10:45;3.69;80.70
65637;DHT22;52327;42.622;23.316;2023-01-16T16:13:29;3.41;81.94
65637;DHT22;52327;42.622;23.316;2023-01-16T16:16:00;3.24;82.65
65637;DHT22;52327;42.622;23.316;2023-01-16T16:19:44;3.34;83.07
65637;DHT22;52327;42.622;23.316;2023-01-16T16:22:08;3.36;81.83
65637;DHT22;52327;42.622;23.316;2023-01-16T16:24:53;3.23;83.04
65637;DHT22;52327;42.622;23.316;2023-01-16T16:27:18;3.21;83.28
65637;DHT22;52327;42.622;23.316;2023-01-16T16:29:49;3.23;83.24
65637;DHT22;52327;42.622;23.316;2023-01-16T16:32:17;3.36;83.05
65637;DHT22;52327;42.622;23.316;2023-01-16T16:34:53;3.39;82.58
65637;DHT22;52327;42.622;23.316;2023-01-16T16:37:19;3.51;82.22
65637;DHT22;52327;42.622;23.316;2023-01-16T16:39:59;3.52;83.06
65637;DHT22;52327;42.622;23.316;2023-01-16T16:47:47;3.59;82.31
65637;DHT22;52327;42.622;23.316;2023-01-16T16:50:32;2.99;83.05
65637;DHT22;52327;42.622;23.316;2023-01-16T16:53:13;2.91;84.26
65637;DHT22;52327;42.622;23.316;2023-01-16T16:55:45;3.07;84.21
65637;DHT22;52327;42.622;23.316;2023-01-16T16:58:20;3.18;84.32
65637;DHT22;52327;42.622;23.316;2023-01-16T17:00:47;3.27;83.01
65637;DHT22;52327;42.622;23.316;2023-01-16T17:03:15;3.27;82.55
65637;DHT22;52327;42.622;23.316;2023-01-16T17:05:41;3.27;82.89
65637;DHT22;52327;42.622;23.316;2023-01-16T17:08:13;3.14;83.12
65637;DHT22;52327;42.622;23.316;2023-01-16T17:10:38;3.15;83.06
65637;DHT22;52327;42.622;23.316;2023-01-16T17:13:04;2.97;83.51
65637;DHT22;52327;42.622;23.316;2023-01-16T17:15:29;2.76;84.40
65637;DHT22;52327;42.622;23.316;2023-01-16T17:17:55;2.69;85.65
65637;DHT22;52327;42.622;23.316;2023-01-16T17:20:24;2.80;85.70
65637;DHT22;52327;42.622;23.316;2023-01-16T17:22:50;2.86;84.97
65637;DHT22;52327;42.622;23.316;2023-01-16T17:25:16;2.90;85.15
65637;DHT22;52327;42.622;23.316;2023-01-16T17:27:53;3.01;83.42
65637;DHT22;52327;42.622;23.316;2023-01-16T17:30:19;2.87;83.86
65637;DHT22;52327;42.622;23.316;2023-01-16T17:33:34;2.83;83.10
65637;DHT22;52327;42.622;23.316;2023-01-16T17:35:39;2.69;84.04
65637;DHT22;52327;42.622;23.316;2023-01-16T17:38:09;2.64;84.65
65637;DHT22;52327;42.622;23.316;2023-01-16T17:40:36;2.63;84.85
65637;DHT22;52327;42.622;23.316;2023-01-16T17:43:02;2.62;84.37
65637;DHT22;52327;42.622;23.316;2023-01-16T17:45:47;2.63;84.32
65637;DHT22;52327;42.622;23.316;2023-01-16T17:48:23;2.63;83.30
65637;DHT22;52327;42.622;23.316;2023-01-16T17:50:49;2.62;84.38
65637;DHT22;52327;42.622;23.316;2023-01-16T17:53:17;2.66;84.53
65637;DHT22;52327;42.622;23.316;2023-01-16T17:55:48;2.54;85.12
65637;DHT22;52327;42.622;23.316;2023-01-16T17:58:29;2.49;85.95
65637;DHT22;52327;42.622;23.316;2023-01-16T18:03:23;2.24;85.05
65637;DHT22;52327;42.622;23.316;2023-01-16T18:05:48;2.17;86.05
65637;DHT22;52327;42.622;23.316;2023-01-16T18:08:14;2.07;86.51
65637;DHT22;52327;42.622;23.316;2023-01-16T18:10:41;2.09;86.45
65637;DHT22;52327;42.622;23.316;2023-01-16T18:13:08;2.12;86.31
65637;DHT22;52327;42.622;23.316;2023-01-16T18:15:52;2.12;86.23
65637;DHT22;52327;42.622;23.316;2023-01-16T18:18:36;2.15;85.97
65637;DHT22;52327;42.622;23.316;2023-01-16T18:21:08;2.15;85.14
65637;DHT22;52327;42.622;23.316;2023-01-16T18:23:53;2.19;84.33
65637;DHT22;52327;42.622;23.316;2023-01-16T18:26:19;2.19;85.80
65637;DHT22;52327;42.622;23.316;2023-01-16T18:28:44;2.31;86.47
65637;DHT22;52327;42.622;23.316;2023-01-16T18:31:10;2.22;85.21
65637;DHT22;52327;42.622;23.316;2023-01-16T18:33:35;2.18;84.64
65637;DHT22;52327;42.622;23.316;2023-01-16T18:36:02;2.19;85.41
65637;DHT22;52327;42.622;23.316;2023-01-16T18:38:31;2.28;85.35
65637;DHT22;52327;42.622;23.316;2023-01-16T18:41:14;2.35;84.78
65637;DHT22;52327;42.622;23.316;2023-01-16T18:43:58;2.42;83.99